Report METAR

 

LIBD - Bari/Palese Macc, Italy
Distance from station: ESE 27km
Dati ricevuti: 07/12/2021 04:50
Molto nuvoloso
Molto nuvoloso
 Vento da O
Vento: O 20 km/h
Temperatura: 7°C
Temperatura Vento: 4°C
P.to Rugiada: 4°C
Umidità: 81%
Barometro: 1004 hPa
Nuvole: Molto nuvoloso
Visibility: 10 km
Cloud details: Parz. nuvoloso 762 m
Molto nuvoloso 1067 m
2021/12/07 03:50 LIBD 070350Z 28011KT 9999 SCT025 BKN035 07/04 Q1004
LIBV - Gioia Del Colle, Italy
Distance from station: SE 63km
Dati ricevuti: 07/12/2021 03:55
Molto nuvoloso
Molto nuvoloso
 Vento da NO
Vento: NO 28 km/h
Temperatura: 7°C
Temperatura Vento: 3°C
P.to Rugiada: 5°C
Umidità: 87%
Barometro: 1002 hPa
Nuvole: Molto nuvoloso
Visibility: 9 km
Cloud details: Molto nuvoloso 914 m
2021/12/07 02:55 LIBV 070255Z 32015KT 9000 BKN030 07/05 Q1002 RMK OVC SCT060 VIS MIN 7000N WIND THR32 33016KT WIND THR14 32014KT WHT
 
LIBA - Amendola (it-Afb, Italy
Distance from station: ONO 72km
Dati ricevuti: 07/12/2021 03:55
Parz. nuvoloso
Parz. nuvoloso
 Vento da ONO
Vento: ONO 35 km/h
Temperatura: 6°C
Temperatura Vento: 1°C
P.to Rugiada: 4°C
Umidità: 87%
Barometro: 1006 hPa
Nuvole: Parz. nuvoloso
Visibility: 10 km
Cloud details: Parz. nuvoloso 1219 m
2021/12/07 02:55 LIBA 070255Z 29019KT 9999 SCT040 06/04 Q1006 RMK SCT VIS MIN 9999 WIND THR11 29019KT WIND THR29 /////KT BLU
LIBF - Foggia/Gino Lisa, Italy
Distance from station: ONO 84km
Dati ricevuti: 06/12/2021 15:50
DATI Obsoleti
Pioggia, Parz. nuvoloso
Pioggia, Parz. nuvoloso
 Vento da NNO
Vento: NNO 20 km/h
Temperatura: 8°C
Temperatura Vento: 4°C
P.to Rugiada: 7°C
Umidità: 93%
Barometro: 1002 hPa
Summary: Pioggia
Nuvole: Parz. nuvoloso
Visibility: 9 km
Cloud details: Parz. nuvoloso 762 m
2021/12/06 14:50 LIBF 061450Z 33011KT 9000 RA SCT025 08/07 Q1002
 
LIBH - Marina Di Ginosa, Italy
Distance from station: SSE 97km
Dati ricevuti: 06/12/2021 18:55
DATI Obsoleti
Few Clouds
Few Clouds
 Vento da NO
Vento: NO 11 km/h
Temperatura: 12°C
P.to Rugiada: 10°C
Umidità: 88%
Barometro: 1001 hPa
Nuvole: Few Clouds
Visibility: 10 km
Cloud details: Few Clouds 914 m
2021/12/06 17:55 LIBH 061755Z 32006KT 9999 FEW030 12/10 Q1001
LIRT - Trevico, Italy
Distance from station: OSO 109km
Dati ricevuti: 06/12/2021 18:55
DATI Obsoleti
Nebbia
Nebbia
 Vento da NNE
Vento: NNE 19 km/h
Temperatura: 1°C
Temperatura Vento: -4°C
P.to Rugiada: 0°C
Umidità: 93%
Barometro: 1000 hPa
Summary: Nebbia
Visibility: 0 km
2021/12/06 17:55 LIRT 061755Z 02010KT 0000 FG VV/// 01/M00 Q1000
 
LIBG - Grottaglie(Civ/A, Italy
Distance from station: SE 110km
Dati ricevuti: 06/12/2021 19:50
DATI Obsoleti
Few Clouds
Few Clouds
 Vento da Variabile
Vento: Variabile 4 km/h
Temperatura: 8°C
P.to Rugiada: 7°C
Umidità: 93%
Barometro: 1001 hPa
Nuvole: Few Clouds
Visibility: 10 km
Cloud details: Few Clouds 1219 m
2021/12/06 18:50 LIBG 061850Z VRB02KT 9999 FEW040 08/07 Q1001
LIBR - Brindisi/Casale, Italy
Distance from station: ESE 139km
Dati ricevuti: 07/12/2021 04:50
Few Clouds
Few Clouds
 Vento da N
Vento: N 37 km/h
Temperatura: 11°C
P.to Rugiada: 6°C
Umidità: 72%
Barometro: 1001 hPa
Nuvole: Few Clouds
Visibility: 10 km
Cloud details: Few Clouds 610 m
2021/12/07 03:50 LIBR 070350Z 35020KT 9999 FEW020 11/06 Q1001
 
LIRI - Pontecagnano (af, Italy
Distance from station: OSO 149km
Dati ricevuti: 06/12/2021 16:50
DATI Obsoleti
Coperto
Coperto
 Vento da NE
Vento: NE 9 km/h
Temperatura: 9°C
Temperatura Vento: 7°C
P.to Rugiada: 5°C
Umidità: 76%
Barometro: 1001 hPa
Nuvole: Coperto
Visibility: 10 km
Cloud details: Coperto 1219 m
2021/12/06 15:50 LIRI 061550Z 05005KT 360V090 9999 OVC040 09/05 Q1001
LIBN - Lecce (it-Afb), Italy
Distance from station: SE 179km
Dati ricevuti: 07/12/2021 03:55
Molto nuvoloso
Molto nuvoloso
 Vento da ONO
Vento: ONO 22 km/h
Temperatura: 9°C
Temperatura Vento: 6°C
P.to Rugiada: 8°C
Umidità: 94%
Barometro: 1002 hPa
Nuvole: Molto nuvoloso
Visibility: 10 km
Cloud details: Molto nuvoloso 366 m
2021/12/07 02:55 LIBN 070255Z 30012KT 9999 BKN012 09/08 Q1002 RMK BKN VIS MIN 9999 WIND THR14 31012KT WIND THR32 31012KT GRN
 
LIRN - Naples/Capodichi, Italy
Distance from station: OSO 188km
Dati ricevuti: 07/12/2021 04:50
Sereno
Sereno
 Vento da E
Vento: E 6 km/h
Temperatura: 5°C
P.to Rugiada: 1°C
Umidità: 76%
Barometro: 1008 hPa
Summary: Sereno
Visibility: superiore a 10 km
2021/12/07 03:50 LIRN 070350Z 09003KT CAVOK 05/01 Q1008 NOSIG